Nearby METAR Reports

 

KHOT - Hot Springs, Arkansas, USA
Distance from station: W 8mi, 14km
Updated: 04/05/2020 12:00pm
Overcast
Overcast
 Wind from calm
Wind: Calm
Temperature: 63°F , 17°C
Dew Point: 54°F , 12°C
Humidity: 73%
Barometer: 30.13 inHg , 1020.3 hPa
Clouds: Overcast
Visibility: 10 miles , 16 km
Cloud details: Few Clouds 1300 ft
Overcast 4100 ft
2020/04/05 17:00 KHOT 051700Z AUTO 00000KT 10SM FEW013 OVC041 17/12 A3013 RMK AO2 T01670122
KMWT - Mount Ida, Arkansas, USA
Distance from station: W 36mi, 58km
Updated: 04/05/2020 11:53am
Overcast
Overcast
 Wind from calm
Wind: Calm
Temperature: 61°F , 16°C
Dew Point: 55°F , 13°C
Humidity: 83%
Barometer: 30.11 inHg , 1019.6 hPa
Clouds: Overcast
Visibility: 10 miles , 16 km
Cloud details: Overcast 900 ft
2020/04/05 16:53 KMWT 051653Z AUTO 00000KT 10SM OVC009 16/13 A3011 RMK AO2 SLP197 T01610128
 
KLIT - Little Rock, Arkansas, USA
Distance from station: ENE 45mi, 73km
Updated: 04/05/2020 11:53am
Partly cloudy
Partly cloudy
 Wind from E
Wind: E 5 mph , 7 km/h
Temperature: 64°F , 18°C
Dew Point: 54°F , 12°C
Humidity: 68%
Barometer: 30.13 inHg , 1020.3 hPa
Clouds: Partly cloudy
Visibility: 10 miles , 16 km
Cloud details: Few Clouds 3500 ft
Partly cloudy 9000 ft
Partly cloudy 25000 ft
2020/04/05 16:53 KLIT 051653Z 08004KT 10SM FEW035 SCT090 SCT250 18/12 A3013 RMK AO2 SLP203 T01830117
KLRF - Little Rock Afb, Arkansas, USA
Distance from station: NE 56mi, 89km
Updated: 04/05/2020 11:56am
Clear
Clear
 Wind from calm
Wind: Calm
Temperature: 66°F , 19°C
Dew Point: 55°F , 13°C
Humidity: 68%
Barometer: 30.11 inHg , 1019.6 hPa
Clouds: Clear
Visibility: 10 miles , 16 km
2020/04/05 16:56 KLRF 051656Z AUTO 00000KT 10SM CLR 19/13 A3011 RMK AO2 SLP198 T01900125 $